createdAt,value
2023-03-02T00:01:51.014Z,10.00
2023-03-02T00:04:37.707Z,9.10
2023-03-02T00:07:09.937Z,9.80
2023-03-02T00:09:38.859Z,10.00
2023-03-02T00:12:07.952Z,11.00
2023-03-02T00:14:38.185Z,10.20
2023-03-02T00:17:08.169Z,11.20
2023-03-02T00:22:05.445Z,12.30
2023-03-02T00:24:33.698Z,13.60
2023-03-02T00:27:01.804Z,11.80
2023-03-02T00:29:29.932Z,12.50
2023-03-02T00:31:58.147Z,11.20
2023-03-02T00:34:26.296Z,12.50
2023-03-02T00:36:54.386Z,11.10
2023-03-02T00:39:22.554Z,10.60
2023-03-02T00:41:50.801Z,11.60
2023-03-02T00:44:18.941Z,13.10
2023-03-02T00:46:47.134Z,12.00
2023-03-02T00:49:15.415Z,9.80
2023-03-02T00:51:43.514Z,9.70
2023-03-02T00:54:11.826Z,11.30
2023-03-02T00:56:45.954Z,8.70
2023-03-02T00:59:29.222Z,6.60
2023-03-02T01:02:00.216Z,6.70
2023-03-02T01:04:31.413Z,3.70
2023-03-02T01:07:03.444Z,5.00
2023-03-02T01:09:31.858Z,4.30
2023-03-02T01:12:00.050Z,3.60
2023-03-02T01:14:29.089Z,5.30
2023-03-02T01:16:57.302Z,4.30
2023-03-02T01:19:25.389Z,4.50
2023-03-02T01:21:53.501Z,4.30
2023-03-02T01:24:21.694Z,5.00
2023-03-02T01:26:49.845Z,4.50
2023-03-02T01:29:17.902Z,6.70
2023-03-02T01:31:46.307Z,4.70
2023-03-02T01:34:14.542Z,5.50
2023-03-02T01:36:45.767Z,6.00
2023-03-02T01:39:16.133Z,6.30
2023-03-02T01:41:45.693Z,5.70
2023-03-02T01:44:35.956Z,4.50
2023-03-02T01:47:18.801Z,6.10
2023-03-02T01:49:51.521Z,4.10
2023-03-02T01:52:20.447Z,5.10
2023-03-02T01:54:50.341Z,5.30
2023-03-02T01:57:23.720Z,5.60
2023-03-02T01:59:59.726Z,6.00
2023-03-02T02:02:28.823Z,5.60
2023-03-02T02:04:58.094Z,5.80
2023-03-02T02:07:28.022Z,4.60
2023-03-02T02:09:57.381Z,7.30
2023-03-02T02:12:25.700Z,8.00
2023-03-02T02:14:55.191Z,5.70
2023-03-02T02:17:23.263Z,7.00
2023-03-02T02:20:09.641Z,7.50
2023-03-02T02:22:40.658Z,6.00
2023-03-02T02:25:30.614Z,7.60
2023-03-02T02:30:28.075Z,5.40
2023-03-02T02:32:57.371Z,5.60
2023-03-02T02:35:28.616Z,4.40
2023-03-02T02:38:03.191Z,6.50
2023-03-02T02:40:55.604Z,7.50
2023-03-02T02:43:23.797Z,5.60
2023-03-02T02:45:55.227Z,6.30
2023-03-02T02:48:27.168Z,6.50
2023-03-02T02:51:00.910Z,7.20
2023-03-02T02:54:00.146Z,6.20
2023-03-02T02:56:37.647Z,8.40
2023-03-02T02:59:13.642Z,6.00
2023-03-02T03:01:42.590Z,7.90
2023-03-02T03:04:14.504Z,6.10
2023-03-02T03:06:54.840Z,5.40
2023-03-02T03:09:23.445Z,6.70
2023-03-02T03:12:03.198Z,5.30
2023-03-02T03:14:39.514Z,6.10
2023-03-02T03:17:12.731Z,5.70
2023-03-02T03:19:43.753Z,6.30
2023-03-02T03:22:14.452Z,6.70
2023-03-02T03:24:44.464Z,7.90
2023-03-02T03:27:15.857Z,6.20
2023-03-02T03:29:48.417Z,7.20
2023-03-02T03:32:16.934Z,6.30
2023-03-02T03:34:45.678Z,5.30
2023-03-02T03:37:17.763Z,6.00
2023-03-02T03:39:46.086Z,5.30
2023-03-02T03:42:15.488Z,5.00
2023-03-02T03:44:43.535Z,4.00
2023-03-02T03:47:11.665Z,6.20
2023-03-02T03:49:39.694Z,6.90
2023-03-02T03:52:07.741Z,6.90
2023-03-02T03:54:36.055Z,4.70
2023-03-02T03:57:04.216Z,5.10
2023-03-02T03:59:34.226Z,5.50
2023-03-02T04:02:03.607Z,5.60
2023-03-02T04:04:34.762Z,3.40
2023-03-02T04:07:03.704Z,5.50
2023-03-02T04:09:34.108Z,6.40
2023-03-02T04:12:02.135Z,5.70
2023-03-02T04:14:30.635Z,8.00
2023-03-02T04:16:58.979Z,6.10
2023-03-02T04:19:27.041Z,7.70
2023-03-02T04:21:55.897Z,5.20
2023-03-02T04:24:24.647Z,5.60
2023-03-02T04:26:52.903Z,7.20
2023-03-02T04:29:21.114Z,7.30
2023-03-02T04:31:49.190Z,6.30
2023-03-02T04:34:17.329Z,6.30
2023-03-02T04:36:46.253Z,6.50
2023-03-02T04:39:17.327Z,6.70
2023-03-02T04:41:46.806Z,4.80
2023-03-02T04:44:16.100Z,4.60
2023-03-02T04:46:45.662Z,7.10
2023-03-02T04:49:15.470Z,6.70
2023-03-02T04:51:45.670Z,5.80
2023-03-02T04:54:17.861Z,4.10
2023-03-02T04:56:49.213Z,4.70
2023-03-02T04:59:24.595Z,7.10
2023-03-02T05:01:59.339Z,5.50
2023-03-02T05:04:28.747Z,4.10
2023-03-02T05:06:58.161Z,4.30
2023-03-02T05:09:31.101Z,7.20
2023-03-02T05:12:00.496Z,6.10
2023-03-02T05:14:29.828Z,5.60
2023-03-02T05:16:58.867Z,4.70
2023-03-02T05:19:27.036Z,4.40
2023-03-02T05:21:57.889Z,7.10
2023-03-02T05:24:26.296Z,5.40
2023-03-02T05:26:54.633Z,4.50
2023-03-02T05:29:22.962Z,5.70
2023-03-02T05:31:51.312Z,5.80
2023-03-02T05:34:19.906Z,6.40
2023-03-02T05:36:49.368Z,6.80
2023-03-02T05:39:17.416Z,6.60
2023-03-02T05:41:45.659Z,5.80
2023-03-02T05:44:13.890Z,5.50
2023-03-02T05:46:42.059Z,6.00
2023-03-02T05:49:10.852Z,5.70
2023-03-02T05:51:38.962Z,5.10
2023-03-02T05:54:07.081Z,6.00
2023-03-02T05:56:36.306Z,5.10
2023-03-02T05:59:04.421Z,4.90
2023-03-02T06:01:32.763Z,6.40
2023-03-02T06:04:01.173Z,6.00
2023-03-02T06:06:29.289Z,7.50
2023-03-02T06:08:57.457Z,6.30
2023-03-02T06:11:26.081Z,6.20
2023-03-02T06:13:54.138Z,6.80
2023-03-02T06:16:22.286Z,6.40
2023-03-02T06:18:50.401Z,5.30
2023-03-02T06:21:18.519Z,5.40
2023-03-02T06:23:46.593Z,6.50
2023-03-02T06:26:14.750Z,5.70
2023-03-02T06:28:52.006Z,4.60
2023-03-02T06:31:22.374Z,4.80
2023-03-02T06:33:50.765Z,6.10
2023-03-02T06:36:19.478Z,6.30
2023-03-02T06:38:47.754Z,6.30
2023-03-02T06:41:16.191Z,6.40
2023-03-02T06:43:44.563Z,6.60
2023-03-02T06:46:13.190Z,6.00
2023-03-02T06:48:41.283Z,5.90
2023-03-02T06:51:09.616Z,5.30
2023-03-02T06:53:37.829Z,5.00
2023-03-02T06:56:07.392Z,5.90
2023-03-02T06:58:36.556Z,5.90
2023-03-02T07:01:04.855Z,5.80
2023-03-02T07:03:33.291Z,5.70
2023-03-02T07:06:01.618Z,6.80
2023-03-02T07:08:30.173Z,7.90
2023-03-02T07:10:58.322Z,8.10
2023-03-02T07:13:26.407Z,9.30
2023-03-02T07:15:55.155Z,7.30
2023-03-02T07:18:23.323Z,5.90
2023-03-02T07:20:51.524Z,8.60
2023-03-02T07:23:19.554Z,7.50
2023-03-02T07:25:47.749Z,6.90
2023-03-02T07:28:15.772Z,6.50
2023-03-02T07:30:43.811Z,6.40
2023-03-02T07:33:11.958Z,10.50
2023-03-02T07:35:40.038Z,11.40
2023-03-02T07:38:08.090Z,8.90
2023-03-02T07:40:39.913Z,8.90
2023-03-02T07:43:08.396Z,9.10
2023-03-02T07:45:38.581Z,11.60
2023-03-02T07:48:07.421Z,11.70
2023-03-02T07:50:35.732Z,9.00
2023-03-02T07:53:03.847Z,8.40
2023-03-02T07:55:31.922Z,8.30
2023-03-02T07:57:59.980Z,8.90
2023-03-02T08:00:29.422Z,10.80
2023-03-02T08:02:57.514Z,8.80
2023-03-02T08:05:25.719Z,10.50
2023-03-02T08:07:53.950Z,11.50
2023-03-02T08:10:23.209Z,11.00
2023-03-02T08:12:52.380Z,12.70
2023-03-02T08:15:21.473Z,11.60
2023-03-02T08:17:49.517Z,11.40
2023-03-02T08:20:17.678Z,9.40
2023-03-02T08:22:45.885Z,10.80
2023-03-02T08:25:13.972Z,11.40
2023-03-02T08:27:42.017Z,10.30
2023-03-02T08:30:11.137Z,11.80
2023-03-02T08:32:39.885Z,12.20
2023-03-02T08:35:08.309Z,10.90
2023-03-02T08:37:36.445Z,9.80
2023-03-02T08:40:04.785Z,10.20
2023-03-02T08:42:32.805Z,9.70
2023-03-02T08:45:00.905Z,9.60
2023-03-02T08:47:29.047Z,10.50
2023-03-02T08:49:57.105Z,10.80
2023-03-02T08:52:25.226Z,11.50
2023-03-02T08:54:53.327Z,9.50
2023-03-02T08:57:21.510Z,11.30
2023-03-02T08:59:49.603Z,9.70
2023-03-02T09:02:18.053Z,8.10
2023-03-02T09:04:46.231Z,8.90
2023-03-02T09:07:17.520Z,8.30
2023-03-02T09:09:45.657Z,7.70
2023-03-02T09:12:13.729Z,6.20
2023-03-02T09:14:41.905Z,7.30
2023-03-02T09:17:13.066Z,6.60
2023-03-02T09:19:44.449Z,7.00
2023-03-02T09:22:12.919Z,5.70
2023-03-02T09:24:41.014Z,7.10
2023-03-02T09:27:09.032Z,8.30
2023-03-02T09:29:37.178Z,8.50
2023-03-02T09:32:05.526Z,7.50
2023-03-02T09:34:33.639Z,8.00
2023-03-02T09:37:01.682Z,7.30
2023-03-02T09:39:30.325Z,8.40
2023-03-02T09:41:58.323Z,7.20
2023-03-02T09:45:03.021Z,8.20
2023-03-02T09:48:03.890Z,8.90
2023-03-02T09:50:35.063Z,8.20
2023-03-02T09:53:08.063Z,7.60
2023-03-02T09:55:37.874Z,8.70
2023-03-02T09:58:17.515Z,8.00
2023-03-02T10:00:46.814Z,7.70
2023-03-02T10:03:32.149Z,7.70
2023-03-02T10:06:00.357Z,7.70
2023-03-02T10:08:34.307Z,7.00
2023-03-02T10:11:09.350Z,18.10
2023-03-02T10:13:44.632Z,13.10
2023-03-02T10:16:35.439Z,9.00
2023-03-02T10:19:06.902Z,12.90
2023-03-02T10:21:40.789Z,12.40
2023-03-02T10:24:28.968Z,8.70
2023-03-02T10:27:26.324Z,7.20
2023-03-02T10:30:15.939Z,18.90
2023-03-02T10:32:56.468Z,11.50
2023-03-02T10:35:26.936Z,9.30
2023-03-02T10:38:13.989Z,10.00
2023-03-02T10:41:00.164Z,7.80
2023-03-02T10:43:44.562Z,9.40
2023-03-02T10:46:14.289Z,6.90
2023-03-02T10:48:57.693Z,6.40
2023-03-02T10:51:37.593Z,7.90
2023-03-02T10:54:07.157Z,7.20
2023-03-02T10:56:36.005Z,7.30
2023-03-02T10:59:43.757Z,6.80
2023-03-02T11:02:25.325Z,8.30
2023-03-02T11:04:59.692Z,16.40
2023-03-02T11:07:29.915Z,14.10
2023-03-02T11:10:15.482Z,9.00
2023-03-02T11:12:47.876Z,8.10
2023-03-02T11:15:27.938Z,12.80
2023-03-02T11:18:20.617Z,9.60
2023-03-02T11:20:53.040Z,7.80
2023-03-02T11:23:27.920Z,19.50
2023-03-02T11:26:05.258Z,9.80
2023-03-02T11:28:52.404Z,12.70
2023-03-02T11:31:35.476Z,25.10
2023-03-02T11:34:26.252Z,19.60
2023-03-02T11:37:16.940Z,15.50
2023-03-02T11:39:55.057Z,7.20
2023-03-02T11:42:44.382Z,7.70
2023-03-02T11:45:16.342Z,27.50
2023-03-02T11:48:02.607Z,38.50
2023-03-02T11:50:47.089Z,28.10
2023-03-02T11:53:19.517Z,25.70
2023-03-02T11:55:49.639Z,11.10
2023-03-02T12:00:49.681Z,12.50
2023-03-02T12:03:33.111Z,9.70
2023-03-02T12:06:05.256Z,7.40
2023-03-02T12:08:42.075Z,5.80
2023-03-02T12:11:19.423Z,6.00
2023-03-02T12:13:50.337Z,7.90
2023-03-02T12:16:33.989Z,5.50
2023-03-02T12:19:17.488Z,6.20
2023-03-02T12:21:59.146Z,6.30
2023-03-02T12:24:29.072Z,23.20
2023-03-02T12:29:50.015Z,27.30
2023-03-02T12:32:29.060Z,21.10
2023-03-02T12:35:01.687Z,8.00
2023-03-02T12:37:36.809Z,43.10
2023-03-02T12:40:26.771Z,41.80
2023-03-02T12:43:25.474Z,28.30
2023-03-02T12:45:56.542Z,38.70
2023-03-02T12:48:30.817Z,55.90
2023-03-02T12:51:05.190Z,13.00
2023-03-02T12:53:34.065Z,11.70
2023-03-02T12:56:02.162Z,10.00
2023-03-02T12:58:30.312Z,12.50
2023-03-02T13:01:01.717Z,15.50
2023-03-02T13:03:31.289Z,12.00
2023-03-02T13:06:14.568Z,5.50
2023-03-02T13:08:46.702Z,5.30
2023-03-02T13:11:22.844Z,4.90
2023-03-02T13:13:51.656Z,6.90
2023-03-02T13:16:27.571Z,10.30
2023-03-02T13:18:58.940Z,15.20
2023-03-02T13:21:37.936Z,12.40
2023-03-02T13:24:44.023Z,6.50
2023-03-02T13:27:24.252Z,13.60
2023-03-02T13:29:53.187Z,10.20
2023-03-02T13:32:36.029Z,14.40
2023-03-02T13:35:17.090Z,8.60
2023-03-02T13:37:45.580Z,12.90
2023-03-02T13:40:23.036Z,15.40
2023-03-02T13:42:51.485Z,20.10
2023-03-02T13:45:28.571Z,97.40
2023-03-02T13:47:59.057Z,114.80
2023-03-02T13:50:30.903Z,68.40
2023-03-02T13:53:02.678Z,33.40
2023-03-02T13:55:31.354Z,140.40
2023-03-02T13:58:00.587Z,117.60
2023-03-02T14:00:34.358Z,84.60
2023-03-02T14:03:02.881Z,16.90
2023-03-02T14:05:34.576Z,10.20
2023-03-02T14:08:03.152Z,17.70
2023-03-02T14:10:31.258Z,30.70
2023-03-02T14:13:05.498Z,11.70
2023-03-02T14:15:37.036Z,11.90
2023-03-02T14:18:30.343Z,37.70
2023-03-02T14:20:59.000Z,20.20
2023-03-02T14:23:27.802Z,39.80
2023-03-02T14:25:57.072Z,21.20
2023-03-02T14:28:36.209Z,15.40
2023-03-02T14:31:05.145Z,23.80
2023-03-02T14:33:33.362Z,13.50
2023-03-02T14:36:01.574Z,8.00
2023-03-02T14:38:30.953Z,16.90
2023-03-02T14:40:59.123Z,13.80
2023-03-02T14:43:27.283Z,11.40
2023-03-02T14:45:55.381Z,7.60
2023-03-02T14:48:23.479Z,10.10
2023-03-02T14:50:52.065Z,9.40
2023-03-02T14:53:28.035Z,8.30
2023-03-02T14:55:56.619Z,7.40
2023-03-02T14:58:31.581Z,7.40
2023-03-02T15:01:01.308Z,9.30
2023-03-02T15:03:29.741Z,8.20
2023-03-02T15:06:02.118Z,6.50
2023-03-02T15:08:30.668Z,7.30
2023-03-02T15:10:58.768Z,8.20
2023-03-02T15:13:26.902Z,8.30
2023-03-02T15:15:55.509Z,7.30
2023-03-02T15:18:23.660Z,10.20
2023-03-02T15:20:51.729Z,10.00
2023-03-02T15:23:19.964Z,8.10
2023-03-02T15:25:48.108Z,7.80
2023-03-02T15:28:16.268Z,9.00
2023-03-02T15:30:44.436Z,8.50
2023-03-02T15:33:12.519Z,7.50
2023-03-02T15:35:42.037Z,10.10
2023-03-02T15:38:10.856Z,9.30
2023-03-02T15:40:38.894Z,10.80
2023-03-02T15:43:07.019Z,9.80
2023-03-02T15:45:35.147Z,12.30
2023-03-02T15:48:04.470Z,12.90
2023-03-02T15:50:32.530Z,13.10
2023-03-02T15:53:00.635Z,14.30
2023-03-02T15:55:28.682Z,16.80
2023-03-02T15:57:58.480Z,17.60
2023-03-02T16:00:27.380Z,22.60
2023-03-02T16:02:55.418Z,20.80
2023-03-02T16:05:23.630Z,22.80
2023-03-02T16:07:51.844Z,22.70
2023-03-02T16:10:20.894Z,20.90
2023-03-02T16:12:49.092Z,21.40
2023-03-02T16:15:17.375Z,26.30
2023-03-02T16:17:45.410Z,121.50
2023-03-02T16:20:13.646Z,139.50
2023-03-02T16:22:41.756Z,84.40
2023-03-02T16:25:10.051Z,63.00
2023-03-02T16:27:38.200Z,37.60
2023-03-02T16:30:06.966Z,32.70
2023-03-02T16:32:35.083Z,39.50
2023-03-02T16:35:03.186Z,56.10
2023-03-02T16:37:31.432Z,49.90
2023-03-02T16:39:59.661Z,43.80
2023-03-02T16:42:30.449Z,39.90
2023-03-02T16:44:58.715Z,41.60
2023-03-02T16:47:31.045Z,34.70
2023-03-02T16:49:59.487Z,32.10
2023-03-02T16:52:27.668Z,29.80
2023-03-02T16:54:56.537Z,30.80
2023-03-02T16:57:26.503Z,30.70
2023-03-02T16:59:55.652Z,27.10
2023-03-02T17:02:25.588Z,28.30
2023-03-02T17:05:06.307Z,25.70
2023-03-02T17:07:34.712Z,26.20
2023-03-02T17:10:05.183Z,26.00
2023-03-02T17:12:33.627Z,31.40
2023-03-02T17:15:01.717Z,36.70
2023-03-02T17:17:29.875Z,44.40
2023-03-02T17:19:58.827Z,49.70
2023-03-02T17:22:26.914Z,178.70
2023-03-02T17:24:55.042Z,115.80
2023-03-02T17:27:26.022Z,103.60
2023-03-02T17:29:55.264Z,98.10
2023-03-02T17:32:24.289Z,80.70
2023-03-02T17:34:54.910Z,63.50
2023-03-02T17:37:23.210Z,40.00
2023-03-02T17:39:52.567Z,40.80
2023-03-02T17:42:23.438Z,34.70
2023-03-02T17:44:51.628Z,33.50
2023-03-02T17:47:20.570Z,35.70
2023-03-02T17:49:52.733Z,33.50
2023-03-02T17:52:23.529Z,33.30
2023-03-02T17:54:54.111Z,28.30
2023-03-02T17:57:23.250Z,29.10
2023-03-02T17:59:51.979Z,25.00
2023-03-02T18:02:20.242Z,28.00
2023-03-02T18:04:48.857Z,26.90
2023-03-02T18:07:16.938Z,26.90
2023-03-02T18:09:47.728Z,34.90
2023-03-02T18:12:25.189Z,33.20
2023-03-02T18:15:13.766Z,33.80
2023-03-02T18:17:54.520Z,28.40
2023-03-02T18:20:23.400Z,28.10
2023-03-02T18:22:51.451Z,30.00
2023-03-02T18:25:22.023Z,29.60
2023-03-02T18:27:50.310Z,46.20
2023-03-02T18:30:22.284Z,31.90
2023-03-02T18:32:50.612Z,31.90
2023-03-02T18:35:19.597Z,32.20
2023-03-02T18:37:50.072Z,32.50
2023-03-02T18:40:26.636Z,30.40
2023-03-02T18:43:40.657Z,26.60
2023-03-02T18:46:21.584Z,26.80
2023-03-02T18:49:00.791Z,26.30
2023-03-02T18:51:53.384Z,31.70
2023-03-02T18:54:21.646Z,34.70
2023-03-02T18:56:50.107Z,33.90
2023-03-02T18:59:19.016Z,34.20
2023-03-02T19:01:47.475Z,26.00
2023-03-02T19:04:15.722Z,144.30
2023-03-02T19:07:00.914Z,35.20
2023-03-02T19:09:39.608Z,30.50
2023-03-02T19:12:08.134Z,63.60
2023-03-02T19:14:43.284Z,83.30
2023-03-02T19:17:24.990Z,47.10
2023-03-02T19:19:53.211Z,35.80
2023-03-02T19:22:22.943Z,94.50
2023-03-02T19:24:52.750Z,76.30
2023-03-02T19:27:20.917Z,82.50
2023-03-02T19:29:49.225Z,116.70
2023-03-02T19:32:22.077Z,115.60
2023-03-02T19:34:50.245Z,141.30
2023-03-02T19:37:18.592Z,182.00
2023-03-02T19:39:49.951Z,123.30
2023-03-02T19:42:20.867Z,60.10
2023-03-02T19:44:53.420Z,60.50
2023-03-02T19:47:24.792Z,48.60
2023-03-02T19:49:55.929Z,36.80
2023-03-02T19:52:30.823Z,28.60
2023-03-02T19:54:59.010Z,47.40
2023-03-02T19:57:27.331Z,37.20
2023-03-02T19:59:56.475Z,37.20
2023-03-02T20:02:24.735Z,25.30
2023-03-02T20:04:53.555Z,25.20
2023-03-02T20:07:21.857Z,24.50
2023-03-02T20:09:50.448Z,30.80
2023-03-02T20:12:20.028Z,23.80
2023-03-02T20:14:49.516Z,33.10
2023-03-02T20:17:19.821Z,30.60
2023-03-02T20:19:49.564Z,20.20
2023-03-02T20:22:17.728Z,21.10
2023-03-02T20:24:45.892Z,19.10
2023-03-02T20:27:14.205Z,16.80
2023-03-02T20:29:43.819Z,19.90
2023-03-02T20:32:13.847Z,23.30
2023-03-02T20:34:43.442Z,25.40
2023-03-02T20:37:15.130Z,22.30
2023-03-02T20:39:50.314Z,17.20
2023-03-02T20:42:19.118Z,16.20
2023-03-02T20:44:47.357Z,17.60
2023-03-02T20:47:16.486Z,15.50
2023-03-02T20:49:44.703Z,15.50
2023-03-02T20:52:13.033Z,15.30
2023-03-02T20:54:43.602Z,17.10
2023-03-02T20:57:16.968Z,17.40
2023-03-02T20:59:46.522Z,14.00
2023-03-02T21:02:17.284Z,14.10
2023-03-02T21:04:46.188Z,13.60
2023-03-02T21:07:17.458Z,15.90
2023-03-02T21:09:46.838Z,15.90
2023-03-02T21:12:15.337Z,15.70
2023-03-02T21:14:43.508Z,14.70
2023-03-02T21:17:11.828Z,13.40
2023-03-02T21:19:40.207Z,12.00
2023-03-02T21:22:08.386Z,12.40
2023-03-02T21:24:36.585Z,12.00
2023-03-02T21:27:11.099Z,13.30
2023-03-02T21:29:42.795Z,13.20
2023-03-02T21:32:11.190Z,14.20
2023-03-02T21:34:39.829Z,13.70
2023-03-02T21:37:10.085Z,14.70
2023-03-02T21:39:40.034Z,15.30
2023-03-02T21:42:08.175Z,14.70
2023-03-02T21:44:36.254Z,14.60
2023-03-02T21:47:04.438Z,15.00
2023-03-02T21:49:32.661Z,17.40
2023-03-02T21:52:00.949Z,17.90
2023-03-02T21:54:29.067Z,16.10
2023-03-02T21:56:57.221Z,14.20
2023-03-02T21:59:25.336Z,16.60
2023-03-02T22:01:53.499Z,18.10
2023-03-02T22:04:21.785Z,16.80
2023-03-02T22:06:51.297Z,16.50
2023-03-02T22:09:19.726Z,18.60
2023-03-02T22:11:49.106Z,16.70
2023-03-02T22:14:17.892Z,17.50
2023-03-02T22:16:48.296Z,17.60
2023-03-02T22:19:38.104Z,19.30
2023-03-02T22:22:24.408Z,18.40
2023-03-02T22:24:54.341Z,16.00
2023-03-02T22:27:31.472Z,17.80
2023-03-02T22:30:03.159Z,20.50
2023-03-02T22:32:37.578Z,20.20
2023-03-02T22:35:21.360Z,20.80
2023-03-02T22:37:52.082Z,21.10
2023-03-02T22:40:29.857Z,18.40
2023-03-02T22:43:31.995Z,18.70
2023-03-02T22:46:17.528Z,20.10
2023-03-02T22:48:48.666Z,21.30
2023-03-02T22:51:22.594Z,22.50
2023-03-02T22:53:59.406Z,21.40
2023-03-02T22:56:42.850Z,20.60
2023-03-02T22:59:26.089Z,23.00
2023-03-02T23:02:00.133Z,21.30
2023-03-02T23:04:37.116Z,24.90
2023-03-02T23:07:16.986Z,22.10
2023-03-02T23:09:45.264Z,25.90
2023-03-02T23:12:24.474Z,21.00
2023-03-02T23:14:58.208Z,23.00
2023-03-02T23:17:40.684Z,22.00
2023-03-02T23:20:12.466Z,19.10
2023-03-02T23:22:41.085Z,19.60
2023-03-02T23:25:09.554Z,22.60
2023-03-02T23:27:37.614Z,17.50
2023-03-02T23:30:06.332Z,14.90
2023-03-02T23:32:35.241Z,16.10
2023-03-02T23:35:03.878Z,16.70
2023-03-02T23:37:32.627Z,15.40
2023-03-02T23:40:00.721Z,11.80
2023-03-02T23:42:28.876Z,11.50
2023-03-02T23:44:57.081Z,11.90
2023-03-02T23:47:25.242Z,11.20
2023-03-02T23:49:53.414Z,9.20
2023-03-02T23:52:21.592Z,8.90
2023-03-02T23:54:49.691Z,10.10
2023-03-02T23:57:17.935Z,9.20
2023-03-02T23:59:46.053Z,9.50
